createdAt,value
2023-03-23T15:58:44.237Z,94444.59
2023-03-23T16:01:16.831Z,94454.81
2023-03-23T16:03:48.090Z,94446.34
2023-03-23T16:06:23.394Z,94454.94
2023-03-23T16:08:55.406Z,94444.69
2023-03-23T16:11:25.623Z,94463.25
2023-03-23T16:13:53.680Z,94461.13
2023-03-23T16:16:24.648Z,94466.31
2023-03-23T16:18:53.358Z,94467.38
2023-03-23T16:21:21.325Z,94467.59
2023-03-23T16:23:49.354Z,94473.44
2023-03-23T16:26:18.913Z,94470.97
2023-03-23T16:28:46.782Z,94474.97
2023-03-23T16:31:14.730Z,94476.88
2023-03-23T16:33:42.920Z,94470.84
2023-03-23T16:36:13.401Z,94464.78
2023-03-23T16:38:49.131Z,94470.91
2023-03-23T16:41:20.328Z,94466.69
2023-03-23T16:43:48.245Z,94477.13
2023-03-23T16:46:16.217Z,94476.19
2023-03-23T16:48:44.155Z,94473.00
2023-03-23T16:51:12.019Z,94474.72
2023-03-23T16:53:40.388Z,94469.13
2023-03-23T16:56:08.455Z,94483.44
2023-03-23T16:58:37.730Z,94477.59
2023-03-23T17:01:06.603Z,94471.63
2023-03-23T17:03:34.778Z,94474.09
2023-03-23T17:06:03.584Z,94476.91
2023-03-23T17:08:31.866Z,94475.31
2023-03-23T17:10:59.876Z,94480.16
2023-03-23T17:13:28.588Z,94481.97
2023-03-23T17:15:58.037Z,94487.63
2023-03-23T17:18:26.391Z,94493.28
2023-03-23T17:20:55.267Z,94494.47
2023-03-23T17:23:24.596Z,94465.25
2023-03-23T17:25:54.105Z,94504.53
2023-03-23T17:28:22.215Z,94494.22
2023-03-23T17:30:52.388Z,94473.09
2023-03-23T17:33:22.286Z,94498.63
2023-03-23T17:35:52.022Z,94481.75
2023-03-23T17:38:20.259Z,94501.03
2023-03-23T17:40:48.571Z,94508.25
2023-03-23T17:43:16.893Z,94512.06
2023-03-23T17:45:46.997Z,94514.63
2023-03-23T17:48:15.266Z,94526.69
2023-03-23T17:50:48.103Z,94517.78
2023-03-23T17:53:18.548Z,94530.50
2023-03-23T17:55:47.160Z,94533.88
2023-03-23T17:58:15.749Z,94531.44
2023-03-23T18:00:46.669Z,94499.94
2023-03-23T18:03:14.930Z,94536.81
2023-03-23T18:05:45.458Z,94534.72
2023-03-23T18:08:13.513Z,94525.53
2023-03-23T18:10:42.320Z,94539.56
2023-03-23T18:13:11.502Z,94545.78
2023-03-23T18:15:39.875Z,94538.81
2023-03-23T18:18:07.952Z,94537.75
2023-03-23T18:20:35.887Z,94550.69
2023-03-23T18:23:07.014Z,94542.78
2023-03-23T18:25:35.303Z,94550.81
2023-03-23T18:28:05.268Z,94540.09
2023-03-23T18:30:35.740Z,94554.13
2023-03-23T18:33:03.817Z,94546.25
2023-03-23T18:35:31.868Z,94550.31
2023-03-23T18:38:00.291Z,94551.75
2023-03-23T18:40:30.013Z,94548.81
2023-03-23T18:42:58.133Z,94538.53
2023-03-23T18:45:26.497Z,94565.50
2023-03-23T18:47:54.719Z,94568.78
2023-03-23T18:50:23.275Z,94567.28
2023-03-23T18:52:51.446Z,94567.88
2023-03-23T18:55:20.867Z,94572.47
2023-03-23T18:57:51.994Z,94570.28
2023-03-23T19:00:21.719Z,94575.06
2023-03-23T19:02:51.951Z,94564.56
2023-03-23T19:05:20.783Z,94575.88
2023-03-23T19:07:48.872Z,94585.66
2023-03-23T19:10:17.402Z,94584.41
2023-03-23T19:12:46.595Z,94584.59
2023-03-23T19:15:17.211Z,94568.16
2023-03-23T19:17:45.822Z,94586.72
2023-03-23T19:20:19.739Z,94569.34
2023-03-23T19:23:02.736Z,94589.00
2023-03-23T19:25:39.541Z,94587.91
2023-03-23T19:30:44.676Z,94595.16
2023-03-23T19:33:12.882Z,94603.16
2023-03-23T19:35:41.543Z,94604.38
2023-03-23T19:38:09.852Z,94618.09
2023-03-23T19:40:42.101Z,94619.00
2023-03-23T19:43:10.507Z,94625.88
2023-03-23T19:45:41.871Z,94613.88
2023-03-23T19:48:16.277Z,94628.34
2023-03-23T19:50:52.779Z,94636.81
2023-03-23T19:53:21.912Z,94636.88
2023-03-23T19:55:50.104Z,94639.09
2023-03-23T19:58:18.386Z,94636.06
2023-03-23T20:00:48.622Z,94640.78
2023-03-23T20:03:16.952Z,94649.28
2023-03-23T20:05:45.563Z,94649.78
2023-03-23T20:08:16.480Z,94643.84
2023-03-23T20:10:44.721Z,94634.75
2023-03-23T20:13:13.133Z,94657.91
2023-03-23T20:15:41.262Z,94663.78
2023-03-23T20:18:14.565Z,94651.75
2023-03-23T20:20:42.567Z,94647.06
2023-03-23T20:23:10.746Z,94657.09
2023-03-23T20:25:39.210Z,94662.66
2023-03-23T20:28:07.464Z,94656.47
2023-03-23T20:30:35.763Z,94658.56
2023-03-23T20:33:04.270Z,94651.72
2023-03-23T20:35:33.722Z,94654.19
2023-03-23T20:38:02.030Z,94653.69
2023-03-23T20:40:30.372Z,94649.19
2023-03-23T20:43:01.453Z,94648.72
2023-03-23T20:45:29.410Z,94641.75
2023-03-23T20:47:57.382Z,94656.19
2023-03-23T20:50:25.401Z,94647.00
2023-03-23T20:52:54.641Z,94642.47
2023-03-23T20:55:22.536Z,94646.69
2023-03-23T20:57:50.373Z,94652.19
2023-03-23T21:00:18.668Z,94648.50
2023-03-23T21:02:49.871Z,94654.97
2023-03-23T21:05:17.904Z,94658.41
2023-03-23T21:07:45.889Z,94657.28
2023-03-23T21:10:15.185Z,94665.75
2023-03-23T21:12:43.082Z,94662.81
2023-03-23T21:15:11.492Z,94666.75
2023-03-23T21:17:39.505Z,94654.06
2023-03-23T21:20:11.052Z,94656.03
2023-03-23T21:22:38.930Z,94644.88
2023-03-23T21:25:07.655Z,94638.69
2023-03-23T21:27:38.111Z,94658.47
2023-03-23T21:30:07.072Z,94658.16
2023-03-23T21:32:35.088Z,94663.19
2023-03-23T21:35:04.483Z,94661.09
2023-03-23T21:37:32.799Z,94652.97
2023-03-23T21:40:00.728Z,94633.38
2023-03-23T21:42:31.202Z,94647.63
2023-03-23T21:45:02.766Z,94661.75
2023-03-23T21:47:31.274Z,94661.75
2023-03-23T21:49:59.279Z,94654.94
2023-03-23T21:52:27.659Z,94648.94
2023-03-23T21:54:58.856Z,94640.84
2023-03-23T21:57:26.802Z,94651.38
2023-03-23T21:59:54.774Z,94650.56
2023-03-23T22:02:24.548Z,94656.38
2023-03-23T22:04:53.261Z,94663.66
2023-03-23T22:07:23.181Z,94661.38
2023-03-23T22:09:51.864Z,94658.31
2023-03-23T22:12:20.321Z,94657.19
2023-03-23T22:14:48.320Z,94658.78
2023-03-23T22:17:16.574Z,94657.19
2023-03-23T22:19:46.117Z,94655.06
2023-03-23T22:22:14.069Z,94663.84
2023-03-23T22:24:42.032Z,94669.50
2023-03-23T22:27:10.835Z,94638.03
2023-03-23T22:29:38.783Z,94652.47
2023-03-23T22:32:06.979Z,94662.69
2023-03-23T22:34:35.062Z,94642.41
2023-03-23T22:37:05.656Z,94675.31
2023-03-23T22:39:34.500Z,94674.50
2023-03-23T22:42:02.604Z,94667.22
2023-03-23T22:44:30.481Z,94675.28
2023-03-23T22:46:58.391Z,94674.00
2023-03-23T22:49:26.521Z,94673.47
2023-03-23T22:51:54.503Z,94672.66
2023-03-23T22:54:24.010Z,94674.91
2023-03-23T22:56:52.060Z,94673.25
2023-03-23T22:59:20.302Z,94685.06
2023-03-23T23:01:48.287Z,94689.22
2023-03-23T23:04:16.319Z,94673.34
2023-03-23T23:06:44.369Z,94670.09
2023-03-23T23:09:12.367Z,94668.66
2023-03-23T23:11:41.705Z,94667.03
2023-03-23T23:14:09.743Z,94636.19
2023-03-23T23:16:37.748Z,94649.66
2023-03-23T23:19:06.066Z,94660.84
2023-03-23T23:21:34.460Z,94658.84
2023-03-23T23:24:02.425Z,94666.75
2023-03-23T23:26:30.853Z,94669.22
2023-03-23T23:29:01.213Z,94663.88
2023-03-23T23:31:32.411Z,94662.59
2023-03-23T23:34:02.084Z,94654.63
2023-03-23T23:36:31.974Z,94658.50
2023-03-23T23:39:01.278Z,94654.28
2023-03-23T23:41:30.516Z,94655.75
2023-03-23T23:44:00.076Z,94654.59
2023-03-23T23:46:28.783Z,94653.28
2023-03-23T23:48:56.863Z,94646.63
2023-03-23T23:51:27.508Z,94649.53
2023-03-23T23:53:58.796Z,94642.91
2023-03-23T23:56:27.173Z,94634.94
2023-03-23T23:58:55.422Z,94632.34
